Time;durP1;ratioP1;P1;durP2;ratioP2;P2;SDS_P1;SDS_P2;PMS_P1;PMS_P2;Temp;Humidity;BMP_temperature;BMP_pressure;BME280_temperature;BME280_humidity;BME280_pressure;Samples;Min_cycle;Max_cycle;Signal;HPM_P1;HPM_P2
2023/02/04 00:02:04;;;;;;;0.50;0.40;;;7.00;99.90;;;;;;5041975;28;20274;-79
2023/02/04 00:04:33;;;;;;;0.50;0.40;;;7.00;99.90;;;;;;5044505;28;20215;-79
2023/02/04 00:06:59;;;;;;;0.50;0.40;;;7.00;99.90;;;;;;5046045;28;20220;-79
2023/02/04 00:09:26;;;;;;;0.50;0.40;;;7.10;99.90;;;;;;5043550;28;20278;-79
2023/02/04 00:11:53;;;;;;;0.50;0.40;;;7.00;99.90;;;;;;5046170;28;20227;-79
2023/02/04 00:14:20;;;;;;;0.50;0.40;;;7.00;99.90;;;;;;5043627;28;20283;-78
2023/02/04 00:16:47;;;;;;;0.50;0.40;;;7.00;99.90;;;;;;5040485;28;20286;-80
2023/02/04 00:19:13;;;;;;;0.50;0.40;;;7.00;99.90;;;;;;5042559;28;20226;-80
2023/02/04 00:21:42;;;;;;;0.50;0.40;;;7.00;99.90;;;;;;5043552;28;20263;-80
2023/02/04 00:24:08;;;;;;;0.50;0.40;;;7.00;99.90;;;;;;5040731;28;20295;-79
2023/02/04 00:26:35;;;;;;;0.50;0.40;;;7.00;99.90;;;;;;5044921;28;20211;-79
2023/02/04 00:29:02;;;;;;;0.50;0.40;;;7.00;99.90;;;;;;5041854;28;20277;-78
2023/02/04 00:31:29;;;;;;;0.50;0.40;;;6.90;99.90;;;;;;5043319;28;20286;-79
2023/02/04 00:33:56;;;;;;;0.50;0.40;;;6.90;99.90;;;;;;5045829;28;20225;-79
2023/02/04 00:36:23;;;;;;;0.50;0.40;;;6.90;99.90;;;;;;5046487;28;20307;-79
2023/02/04 00:38:51;;;;;;;0.50;0.40;;;6.90;99.90;;;;;;5047262;28;20222;-79
2023/02/04 00:41:18;;;;;;;1.55;1.45;;;6.90;99.90;;;;;;5050430;28;20199;-78
2023/02/04 00:43:45;;;;;;;0.50;0.40;;;6.90;99.90;;;;;;5047302;28;20704;-79
2023/02/04 00:46:12;;;;;;;0.50;0.45;;;6.90;99.90;;;;;;5046915;28;20284;-79
2023/02/04 00:48:38;;;;;;;0.50;0.40;;;6.90;99.90;;;;;;5045608;28;20201;-78
2023/02/04 00:51:05;;;;;;;2.83;0.82;;;6.90;99.90;;;;;;5048930;28;20282;-79
2023/02/04 00:53:32;;;;;;;0.50;0.50;;;6.90;99.90;;;;;;5048063;28;20187;-79
2023/02/04 00:56:00;;;;;;;0.50;0.40;;;7.00;99.90;;;;;;5048941;28;20266;-78
2023/02/04 00:58:29;;;;;;;0.77;0.77;;;7.00;99.90;;;;;;5051375;28;20199;-79
2023/02/04 01:00:56;;;;;;;0.50;0.40;;;6.90;99.90;;;;;;5047443;28;20198;-79
2023/02/04 01:03:23;;;;;;;2.33;1.95;;;7.00;99.90;;;;;;5049715;28;20306;-78
2023/02/04 01:05:50;;;;;;;0.50;0.40;;;7.00;99.90;;;;;;5047565;28;20274;-79
2023/02/04 01:08:17;;;;;;;0.50;0.40;;;7.00;99.90;;;;;;5046773;28;20273;-78
2023/02/04 01:10:44;;;;;;;0.55;0.45;;;7.00;99.90;;;;;;5047837;28;20219;-79
2023/02/04 01:13:12;;;;;;;0.50;0.40;;;7.10;99.90;;;;;;5047277;28;20258;-77
2023/02/04 01:15:39;;;;;;;0.50;0.40;;;7.10;99.90;;;;;;5046662;28;20204;-79
2023/02/04 01:18:06;;;;;;;0.50;0.40;;;7.10;99.90;;;;;;5049234;28;20195;-78
2023/02/04 01:20:32;;;;;;;0.50;0.40;;;7.10;99.90;;;;;;5048469;28;20210;-79
2023/02/04 01:22:59;;;;;;;0.50;0.40;;;7.00;99.90;;;;;;5040257;28;20275;-79
2023/02/04 01:25:26;;;;;;;0.50;0.40;;;7.00;99.90;;;;;;5039781;28;20302;-80
2023/02/04 01:27:53;;;;;;;0.60;0.40;;;7.10;99.90;;;;;;5037811;28;20698;-79
2023/02/04 01:30:21;;;;;;;0.50;0.40;;;7.00;99.90;;;;;;5038967;28;20201;-79
2023/02/04 01:32:48;;;;;;;0.50;0.40;;;7.00;99.90;;;;;;5038333;28;20277;-79
2023/02/04 01:35:15;;;;;;;1.58;1.48;;;7.00;99.90;;;;;;5037044;28;20291;-79
2023/02/04 01:37:42;;;;;;;0.50;0.40;;;7.00;99.90;;;;;;5037743;28;20221;-79
2023/02/04 01:40:11;;;;;;;0.50;0.40;;;7.10;99.90;;;;;;5039512;28;20198;-79
2023/02/04 01:42:39;;;;;;;0.50;0.40;;;7.10;99.90;;;;;;5043241;28;20179;-78
2023/02/04 01:45:06;;;;;;;0.50;0.50;;;7.10;99.90;;;;;;5041007;28;20424;-78
2023/02/04 01:47:35;;;;;;;0.50;0.40;;;7.10;99.90;;;;;;5040939;28;20202;-78
2023/02/04 01:50:02;;;;;;;0.50;0.40;;;7.10;99.90;;;;;;5039978;28;20206;-78
2023/02/04 01:52:37;;;;;;;0.50;0.40;;;7.10;99.90;;;;;;5040250;28;20198;-78
2023/02/04 01:55:05;;;;;;;0.50;0.40;;;7.10;99.90;;;;;;5040417;28;20218;-79
2023/02/04 01:57:33;;;;;;;0.50;0.40;;;7.10;99.90;;;;;;5040166;28;20195;-78
2023/02/04 02:00:00;;;;;;;0.50;0.40;;;7.10;99.90;;;;;;5040232;28;20230;-78
2023/02/04 02:02:44;;;;;;;0.50;0.40;;;7.10;99.90;;;;;;5038994;28;20293;-79
2023/02/04 02:05:14;;;;;;;0.50;0.40;;;7.10;99.90;;;;;;5037664;28;20258;-79
2023/02/04 02:07:41;;;;;;;0.50;0.50;;;7.10;99.90;;;;;;5038364;28;20199;-79
2023/02/04 02:10:11;;;;;;;0.50;0.40;;;7.10;99.90;;;;;;5038343;28;20241;-78
2023/02/04 02:12:38;;;;;;;0.50;0.40;;;7.20;99.90;;;;;;5039465;28;20205;-79
2023/02/04 02:15:05;;;;;;;0.50;0.40;;;7.20;99.90;;;;;;5039998;28;20241;-80
2023/02/04 02:17:33;;;;;;;0.77;0.70;;;7.20;99.90;;;;;;5039289;28;20213;-79
2023/02/04 02:20:01;;;;;;;0.50;0.40;;;7.20;99.90;;;;;;5039014;28;20191;-78
2023/02/04 02:22:33;;;;;;;0.50;0.40;;;7.20;99.90;;;;;;5037603;28;20290;-78
2023/02/04 02:25:01;;;;;;;0.50;0.40;;;7.20;99.90;;;;;;5037432;28;20229;-77
2023/02/04 02:27:28;;;;;;;0.50;0.40;;;7.20;99.90;;;;;;5038106;28;20261;-79
2023/02/04 02:29:55;;;;;;;0.55;0.55;;;7.20;99.90;;;;;;5037888;28;20270;-79
2023/02/04 02:32:22;;;;;;;0.50;0.40;;;7.20;99.90;;;;;;5037932;28;20241;-80
2023/02/04 02:34:49;;;;;;;0.50;0.50;;;7.20;99.90;;;;;;5036891;28;20278;-78
2023/02/04 02:37:15;;;;;;;0.50;0.40;;;7.20;99.90;;;;;;5037427;28;20257;-79
2023/02/04 02:39:44;;;;;;;0.50;0.40;;;7.20;99.90;;;;;;5038129;28;20226;-79
2023/02/04 02:42:16;;;;;;;0.50;0.40;;;7.20;99.90;;;;;;5038335;28;20195;-79
2023/02/04 02:44:47;;;;;;;0.50;0.40;;;7.20;99.90;;;;;;5037617;28;20200;-79
2023/02/04 02:47:16;;;;;;;0.50;0.40;;;7.20;99.90;;;;;;5039598;28;20584;-78
2023/02/04 02:49:43;;;;;;;0.50;0.40;;;7.10;99.90;;;;;;5041604;28;20215;-78
2023/02/04 02:52:11;;;;;;;0.50;0.40;;;7.10;99.90;;;;;;5040625;28;20201;-76
2023/02/04 02:54:40;;;;;;;0.63;0.63;;;7.10;99.90;;;;;;5040989;28;20215;-80
2023/02/04 02:57:13;;;;;;;0.50;0.40;;;7.10;99.90;;;;;;5040837;28;20278;-80
2023/02/04 02:59:40;;;;;;;0.50;0.40;;;7.10;99.90;;;;;;5042727;28;20270;-79
2023/02/04 03:02:09;;;;;;;0.50;0.40;;;7.10;99.90;;;;;;5049710;28;20199;-77
2023/02/04 03:04:38;;;;;;;0.50;0.40;;;7.10;99.90;;;;;;5047487;28;20218;-77
2023/02/04 03:07:06;;;;;;;0.50;0.40;;;7.10;99.90;;;;;;5047941;28;20295;-78
2023/02/04 03:09:34;;;;;;;0.50;0.40;;;7.10;99.90;;;;;;5043111;28;20206;-78
2023/02/04 03:12:00;;;;;;;1.35;1.20;;;7.10;99.90;;;;;;5041332;28;20322;-78
2023/02/04 03:14:29;;;;;;;0.50;0.40;;;7.10;99.90;;;;;;5042102;28;20245;-77
2023/02/04 03:16:57;;;;;;;0.50;0.40;;;7.10;99.90;;;;;;5042480;28;20259;-79
2023/02/04 03:19:25;;;;;;;1.40;1.30;;;7.00;99.90;;;;;;5042406;28;20605;-78
2023/02/04 03:21:52;;;;;;;0.50;0.40;;;7.00;99.90;;;;;;5041839;28;20271;-78
2023/02/04 03:24:19;;;;;;;0.50;0.40;;;7.00;99.90;;;;;;5042172;28;20215;-80
2023/02/04 03:26:46;;;;;;;1.85;1.80;;;7.00;99.90;;;;;;5041377;28;20253;-79
2023/02/04 03:29:13;;;;;;;0.50;0.40;;;7.00;99.90;;;;;;5042241;28;20199;-80
2023/02/04 03:31:41;;;;;;;0.50;0.50;;;6.90;99.90;;;;;;5042855;28;20199;-79
2023/02/04 03:34:08;;;;;;;0.50;0.40;;;6.90;99.90;;;;;;5041993;28;20260;-79
2023/02/04 03:36:35;;;;;;;0.50;0.40;;;6.90;99.90;;;;;;5041395;28;20633;-80
2023/02/04 03:39:02;;;;;;;0.50;0.40;;;6.90;99.90;;;;;;5042398;28;20614;-80
2023/02/04 03:41:30;;;;;;;0.50;0.50;;;6.90;99.90;;;;;;5041388;28;20227;-79
2023/02/04 03:43:56;;;;;;;0.50;0.40;;;6.90;99.90;;;;;;5039591;28;20225;-79
2023/02/04 03:46:24;;;;;;;0.50;0.40;;;6.90;99.90;;;;;;5039133;28;20219;-79
2023/02/04 03:48:53;;;;;;;0.50;0.40;;;6.90;99.90;;;;;;5039796;28;20292;-79
2023/02/04 03:51:22;;;;;;;0.50;0.40;;;6.90;99.90;;;;;;5040714;28;20266;-80
2023/02/04 03:53:49;;;;;;;0.50;0.40;;;6.90;99.90;;;;;;5040315;28;20207;-80
2023/02/04 03:56:16;;;;;;;0.50;0.40;;;6.90;99.90;;;;;;5040086;28;20219;-79
2023/02/04 03:58:42;;;;;;;0.50;0.40;;;6.90;99.90;;;;;;5038889;28;20264;-80
2023/02/04 04:01:11;;;;;;;0.50;0.40;;;6.90;99.90;;;;;;5040905;28;20653;-78
2023/02/04 04:03:38;;;;;;;0.93;0.93;;;6.80;99.90;;;;;;5039896;28;20667;-80
2023/02/04 04:06:08;;;;;;;0.50;0.40;;;6.90;99.90;;;;;;5039579;28;20223;-80
2023/02/04 04:08:35;;;;;;;0.50;0.40;;;6.90;99.90;;;;;;5040681;28;20584;-79
2023/02/04 04:11:02;;;;;;;0.50;0.40;;;6.90;99.90;;;;;;5069746;28;20283;-79
2023/02/04 04:13:29;;;;;;;0.50;0.40;;;6.90;99.90;;;;;;5082535;28;20232;-79
2023/02/04 04:15:56;;;;;;;0.60;0.60;;;6.90;99.90;;;;;;5081336;28;20216;-79
2023/02/04 04:18:23;;;;;;;0.50;0.40;;;6.90;99.90;;;;;;5081750;28;20221;-79
2023/02/04 04:20:50;;;;;;;0.50;0.40;;;6.90;99.90;;;;;;5081321;28;20651;-80
2023/02/04 04:23:20;;;;;;;0.50;0.40;;;6.90;99.90;;;;;;5081665;28;20286;-79
2023/02/04 04:25:48;;;;;;;0.50;0.40;;;6.90;99.90;;;;;;5081026;28;20229;-78
2023/02/04 04:28:15;;;;;;;0.50;0.40;;;6.80;99.90;;;;;;5080523;28;20514;-79
2023/02/04 04:30:42;;;;;;;0.50;0.40;;;6.90;99.90;;;;;;5081404;28;20284;-79
2023/02/04 04:33:09;;;;;;;0.50;0.40;;;6.90;99.90;;;;;;5082106;28;20284;-80
2023/02/04 04:35:35;;;;;;;0.50;0.40;;;6.90;99.90;;;;;;5082312;28;20241;-80
2023/02/04 04:38:02;;;;;;;0.50;0.40;;;6.80;99.90;;;;;;5082171;28;20217;-79
2023/02/04 04:40:30;;;;;;;0.50;0.40;;;6.80;99.90;;;;;;5083324;28;20562;-79
2023/02/04 04:42:57;;;;;;;0.50;0.40;;;6.80;99.90;;;;;;5082478;28;20293;-80
2023/02/04 04:45:24;;;;;;;0.50;0.40;;;6.80;99.90;;;;;;5082842;28;20252;-80
2023/02/04 04:47:51;;;;;;;0.50;0.40;;;6.80;99.90;;;;;;5083044;28;20266;-80
2023/02/04 04:50:18;;;;;;;0.50;0.40;;;6.80;99.90;;;;;;5082906;28;20237;-80
2023/02/04 04:52:45;;;;;;;0.50;0.40;;;6.80;99.90;;;;;;5083697;28;20636;-79
2023/02/04 04:55:12;;;;;;;0.50;0.40;;;6.80;99.90;;;;;;5081759;28;20277;-79
2023/02/04 04:57:40;;;;;;;0.50;0.40;;;6.70;99.90;;;;;;5082683;28;20284;-80
2023/02/04 05:00:09;;;;;;;0.50;0.40;;;6.70;99.90;;;;;;5082174;28;20230;-79
2023/02/04 05:02:35;;;;;;;0.50;0.40;;;6.70;99.90;;;;;;5082707;28;20236;-80
2023/02/04 05:05:02;;;;;;;0.57;0.57;;;6.70;99.90;;;;;;5081931;28;20694;-79
2023/02/04 05:07:29;;;;;;;0.50;0.40;;;6.70;99.90;;;;;;5082063;28;20196;-79
2023/02/04 05:09:56;;;;;;;0.50;0.40;;;6.70;99.90;;;;;;5080483;28;20234;-78
2023/02/04 05:12:23;;;;;;;0.50;0.40;;;6.70;99.90;;;;;;5081065;28;20240;-79
2023/02/04 05:14:51;;;;;;;0.50;0.50;;;6.70;99.90;;;;;;5081302;28;20213;-79
2023/02/04 05:17:18;;;;;;;0.50;0.40;;;6.60;99.90;;;;;;5084005;28;20244;-80
2023/02/04 05:19:45;;;;;;;0.50;0.40;;;6.70;99.90;;;;;;5083668;28;20249;-79
2023/02/04 05:22:11;;;;;;;0.50;0.40;;;6.70;99.90;;;;;;5084425;28;20233;-78
2023/02/04 05:24:38;;;;;;;0.50;0.40;;;6.60;99.90;;;;;;5080739;28;20234;-80
2023/02/04 05:27:05;;;;;;;0.50;0.40;;;6.70;99.90;;;;;;5063539;28;20221;-78
2023/02/04 05:29:32;;;;;;;0.50;0.40;;;6.60;99.90;;;;;;5080435;28;20232;-80
2023/02/04 05:32:00;;;;;;;0.50;0.40;;;6.50;99.90;;;;;;5081664;28;20195;-79
2023/02/04 05:34:27;;;;;;;0.50;0.40;;;6.50;99.90;;;;;;5080869;28;20298;-78
2023/02/04 05:36:54;;;;;;;0.50;0.40;;;6.60;99.90;;;;;;5080699;28;20218;-79
2023/02/04 05:39:21;;;;;;;0.50;0.40;;;6.60;99.90;;;;;;5082028;28;20224;-79
2023/02/04 05:41:48;;;;;;;0.50;0.40;;;6.60;99.90;;;;;;5081377;28;20204;-79
2023/02/04 05:44:14;;;;;;;0.50;0.40;;;6.60;99.90;;;;;;5081767;28;20360;-77
2023/02/04 05:46:41;;;;;;;0.50;0.40;;;6.60;99.90;;;;;;5082178;28;20225;-79
2023/02/04 05:49:10;;;;;;;0.50;0.40;;;6.60;99.90;;;;;;5082631;28;20630;-79
2023/02/04 05:51:37;;;;;;;0.50;0.40;;;6.70;99.90;;;;;;5081811;28;20194;-79
2023/02/04 05:54:03;;;;;;;0.50;0.40;;;6.60;99.90;;;;;;5082320;28;20217;-79
2023/02/04 05:56:30;;;;;;;1.30;1.30;;;6.70;99.90;;;;;;5081252;28;20229;-79
2023/02/04 05:58:57;;;;;;;0.50;0.40;;;6.70;99.90;;;;;;5082225;28;20209;-79
2023/02/04 06:01:24;;;;;;;0.50;0.40;;;6.70;99.90;;;;;;5081271;28;20194;-80
2023/02/04 06:03:51;;;;;;;0.50;0.40;;;6.70;99.90;;;;;;5082153;28;20260;-80
2023/02/04 06:06:19;;;;;;;0.50;0.40;;;6.70;99.90;;;;;;5081197;28;20256;-78
2023/02/04 06:08:46;;;;;;;0.50;0.40;;;6.70;99.90;;;;;;5081629;28;20202;-79
2023/02/04 06:11:13;;;;;;;0.50;0.40;;;6.70;99.90;;;;;;5081428;28;20213;-79
2023/02/04 06:13:40;;;;;;;1.10;1.10;;;6.70;99.90;;;;;;5081518;28;20190;-79
2023/02/04 06:16:07;;;;;;;0.50;0.50;;;6.80;99.90;;;;;;5079869;28;20690;-78
2023/02/04 06:18:34;;;;;;;0.60;0.60;;;6.70;99.90;;;;;;5082657;28;20635;-79
2023/02/04 06:21:03;;;;;;;0.63;0.63;;;6.70;99.90;;;;;;5081893;28;20230;-79
2023/02/04 06:23:33;;;;;;;0.50;0.40;;;6.70;99.90;;;;;;5085873;28;20243;-80
2023/02/04 06:26:00;;;;;;;0.50;0.40;;;6.70;99.90;;;;;;5085890;28;20229;-79
2023/02/04 06:28:27;;;;;;;0.50;0.40;;;6.70;99.90;;;;;;5085364;28;20260;-80
2023/02/04 06:30:53;;;;;;;0.50;0.40;;;6.70;99.90;;;;;;5086549;28;20233;-79
2023/02/04 06:33:22;;;;;;;0.50;0.40;;;6.60;99.90;;;;;;5084950;28;20198;-81
2023/02/04 06:35:49;;;;;;;0.50;0.40;;;6.60;99.90;;;;;;5083679;28;20625;-79
2023/02/04 06:38:17;;;;;;;0.50;0.40;;;6.60;99.90;;;;;;5084203;28;20285;-79
2023/02/04 06:40:48;;;;;;;0.50;0.40;;;6.70;99.90;;;;;;5084195;28;20253;-80
2023/02/04 06:43:14;;;;;;;0.50;0.40;;;6.70;99.90;;;;;;5084235;28;20659;-79
2023/02/04 06:45:42;;;;;;;0.50;0.40;;;6.70;99.90;;;;;;5083632;28;20218;-80
2023/02/04 06:48:08;;;;;;;0.50;0.40;;;6.70;99.90;;;;;;5084650;28;20218;-79
2023/02/04 06:50:35;;;;;;;0.50;0.40;;;6.70;99.90;;;;;;5084065;28;20198;-80
2023/02/04 06:53:02;;;;;;;0.50;0.40;;;6.60;99.90;;;;;;5083394;28;20194;-78
2023/02/04 06:55:29;;;;;;;0.50;0.40;;;6.60;99.90;;;;;;5082825;28;20234;-79
2023/02/04 06:57:57;;;;;;;0.50;0.40;;;6.60;99.90;;;;;;5084471;28;20198;-79
2023/02/04 07:00:24;;;;;;;0.50;0.40;;;6.70;99.90;;;;;;5084223;28;20213;-79
2023/02/04 07:02:51;;;;;;;0.50;0.40;;;6.70;99.90;;;;;;5082401;28;20281;-81
2023/02/04 07:05:18;;;;;;;0.50;0.40;;;6.60;99.90;;;;;;5082760;28;20214;-79
2023/02/04 07:07:45;;;;;;;0.50;0.40;;;6.60;99.90;;;;;;5083938;28;20202;-80
2023/02/04 07:10:13;;;;;;;0.50;0.40;;;6.60;99.90;;;;;;5085036;28;20214;-78
2023/02/04 07:12:40;;;;;;;0.50;0.40;;;6.70;99.90;;;;;;5084206;28;20251;-79
2023/02/04 07:15:09;;;;;;;0.50;0.40;;;6.70;99.90;;;;;;5084725;28;20247;-78
2023/02/04 07:17:36;;;;;;;0.50;0.40;;;6.70;99.90;;;;;;5083699;28;20237;-79
2023/02/04 07:20:03;;;;;;;0.50;0.40;;;6.70;99.90;;;;;;5085546;28;20205;-81
2023/02/04 07:22:30;;;;;;;0.50;0.40;;;6.70;99.90;;;;;;5085031;28;20202;-78
2023/02/04 07:24:57;;;;;;;0.50;0.40;;;6.70;99.90;;;;;;5083070;28;20216;-78
2023/02/04 07:27:24;;;;;;;0.50;0.30;;;6.70;99.90;;;;;;5084807;28;20241;-79
2023/02/04 07:29:51;;;;;;;0.50;0.40;;;6.70;99.90;;;;;;5084521;28;20193;-80
2023/02/04 07:32:19;;;;;;;0.50;0.40;;;6.70;99.90;;;;;;5083122;28;20194;-78
2023/02/04 07:34:46;;;;;;;0.50;0.40;;;6.70;99.90;;;;;;5081393;28;20197;-78
2023/02/04 07:37:13;;;;;;;0.50;0.40;;;6.70;99.90;;;;;;5084069;28;20511;-79
2023/02/04 07:39:40;;;;;;;0.50;0.40;;;6.70;99.90;;;;;;5083262;28;20647;-80
2023/02/04 07:42:07;;;;;;;0.50;0.40;;;6.80;99.90;;;;;;5082029;28;20205;-79
2023/02/04 07:44:34;;;;;;;0.50;0.40;;;6.80;99.90;;;;;;5081453;28;20194;-78
2023/02/04 07:47:01;;;;;;;0.50;0.40;;;6.80;99.90;;;;;;5080750;28;20654;-79
2023/02/04 07:49:29;;;;;;;0.50;0.40;;;6.80;99.90;;;;;;5080914;28;20293;-79
2023/02/04 07:51:57;;;;;;;0.50;0.40;;;6.80;99.90;;;;;;5080940;28;20221;-80
2023/02/04 07:54:23;;;;;;;0.50;0.40;;;6.90;99.90;;;;;;5081114;28;20202;-79
2023/02/04 07:56:50;;;;;;;0.50;0.35;;;7.00;99.90;;;;;;5082115;28;20240;-78
2023/02/04 07:59:17;;;;;;;0.50;0.40;;;7.10;99.90;;;;;;5082906;28;20285;-78
2023/02/04 08:01:44;;;;;;;0.50;0.40;;;7.20;99.90;;;;;;5082872;28;20225;-80
2023/02/04 08:04:11;;;;;;;0.50;0.40;;;7.20;99.90;;;;;;5081057;28;20323;-79
2023/02/04 08:06:39;;;;;;;0.50;0.40;;;7.30;99.90;;;;;;5081353;28;20304;-79
2023/02/04 08:09:06;;;;;;;0.50;0.30;;;7.40;99.90;;;;;;5081977;28;20185;-79
2023/02/04 08:11:33;;;;;;;0.50;0.40;;;7.60;99.90;;;;;;5081771;28;20197;-79
2023/02/04 08:14:00;;;;;;;0.50;0.40;;;7.70;99.90;;;;;;5082396;28;20220;-80
2023/02/04 08:16:27;;;;;;;0.50;0.40;;;7.80;99.90;;;;;;5075278;28;20230;-79
2023/02/04 08:18:53;;;;;;;0.50;0.40;;;7.90;99.90;;;;;;5049793;28;20191;-78
2023/02/04 08:21:20;;;;;;;0.50;0.40;;;8.00;99.90;;;;;;5043217;28;20219;-79
2023/02/04 08:23:49;;;;;;;0.50;0.30;;;8.10;99.90;;;;;;5055031;28;20282;-78
2023/02/04 08:26:16;;;;;;;0.70;0.68;;;8.20;99.90;;;;;;5046453;28;20202;-80
2023/02/04 08:28:42;;;;;;;0.50;0.40;;;8.30;99.90;;;;;;5063126;28;20203;-80
2023/02/04 08:31:10;;;;;;;0.50;0.40;;;8.30;99.90;;;;;;5064409;28;20202;-80
2023/02/04 08:33:38;;;;;;;0.50;0.40;;;8.40;99.90;;;;;;5063762;28;20707;-81
2023/02/04 08:36:06;;;;;;;0.50;0.40;;;8.50;99.90;;;;;;5063378;28;20691;-80
2023/02/04 08:38:33;;;;;;;0.50;0.40;;;8.50;99.90;;;;;;5070730;28;20190;-80
2023/02/04 08:41:01;;;;;;;0.50;0.35;;;8.60;99.90;;;;;;5070748;28;20206;-77
2023/02/04 08:43:28;;;;;;;0.50;0.38;;;8.80;99.90;;;;;;5067547;28;20222;-81
2023/02/04 08:45:55;;;;;;;0.50;0.50;;;9.00;99.90;;;;;;5062637;28;20290;-80
2023/02/04 08:48:22;;;;;;;0.50;0.40;;;9.20;99.90;;;;;;5063922;28;20219;-81
2023/02/04 08:50:49;;;;;;;0.50;0.40;;;9.30;99.90;;;;;;5064179;28;20199;-80
2023/02/04 08:53:16;;;;;;;0.50;0.40;;;9.70;99.90;;;;;;5063309;28;20195;-79
2023/02/04 08:55:42;;;;;;;0.50;0.40;;;10.10;99.90;;;;;;5062880;28;20297;-80
2023/02/04 08:58:11;;;;;;;0.50;0.40;;;10.50;99.90;;;;;;5061859;28;20198;-80
2023/02/04 09:00:37;;;;;;;0.50;0.40;;;10.70;99.90;;;;;;5062340;28;20226;-80
2023/02/04 09:03:04;;;;;;;0.50;0.40;;;10.70;99.90;;;;;;5060997;28;20218;-80
2023/02/04 09:05:31;;;;;;;1.57;0.70;;;10.50;99.90;;;;;;5061538;28;20225;-81
2023/02/04 09:07:58;;;;;;;0.50;0.40;;;10.30;99.90;;;;;;5061945;28;20555;-80
2023/02/04 09:10:25;;;;;;;0.50;0.40;;;10.10;99.90;;;;;;5064357;28;20281;-81
2023/02/04 09:12:55;;;;;;;0.50;0.40;;;10.10;99.90;;;;;;5062932;28;20549;-81
2023/02/04 09:15:24;;;;;;;1.80;1.70;;;10.00;99.90;;;;;;5061313;28;20208;-81
2023/02/04 09:17:52;;;;;;;0.50;0.40;;;9.90;99.90;;;;;;5061900;28;20256;-81
2023/02/04 09:20:20;;;;;;;0.50;0.40;;;9.80;99.90;;;;;;5061130;28;20199;-80
2023/02/04 09:22:49;;;;;;;0.50;0.40;;;9.90;99.90;;;;;;5060594;28;20583;-80
2023/02/04 09:25:16;;;;;;;0.75;0.75;;;9.80;99.90;;;;;;5060973;28;20205;-80
2023/02/04 09:27:42;;;;;;;0.50;0.40;;;9.70;99.90;;;;;;5060490;28;20571;-81
2023/02/04 09:30:10;;;;;;;0.50;0.40;;;9.70;99.90;;;;;;5060822;28;20205;-79
2023/02/04 09:32:39;;;;;;;0.85;0.82;;;9.70;99.90;;;;;;5060535;28;20587;-81
2023/02/04 09:35:06;;;;;;;0.50;0.40;;;9.60;99.90;;;;;;5060508;28;20217;-80
2023/02/04 09:37:33;;;;;;;9.52;1.67;;;9.50;99.90;;;;;;5059894;28;20254;-81
2023/02/04 09:40:00;;;;;;;0.50;0.40;;;9.50;99.90;;;;;;5060065;28;20221;-80
2023/02/04 09:42:28;;;;;;;0.50;0.40;;;9.30;99.90;;;;;;5060620;28;20195;-80
2023/02/04 09:44:55;;;;;;;0.50;0.50;;;9.30;99.90;;;;;;5059890;28;20214;-80
2023/02/04 09:47:23;;;;;;;0.50;0.40;;;9.30;99.90;;;;;;5061154;28;20294;-80
2023/02/04 09:49:52;;;;;;;0.50;0.40;;;9.30;99.90;;;;;;5062094;28;20205;-80
2023/02/04 09:52:19;;;;;;;0.50;0.40;;;9.40;99.90;;;;;;5061872;28;20198;-79
2023/02/04 09:54:46;;;;;;;0.50;0.40;;;9.30;99.90;;;;;;5061733;28;20198;-81
2023/02/04 09:57:16;;;;;;;0.68;0.68;;;9.60;99.90;;;;;;5060281;28;20563;-80
2023/02/04 09:59:45;;;;;;;0.50;0.40;;;9.70;99.90;;;;;;5062749;28;20201;-80
2023/02/04 10:02:21;;;;;;;0.50;0.40;;;9.70;99.90;;;;;;5061731;28;20679;-81
2023/02/04 10:04:48;;;;;;;0.50;0.40;;;9.90;99.90;;;;;;5059798;28;20799;-80
2023/02/04 10:07:21;;;;;;;0.50;0.40;;;10.10;99.90;;;;;;5060247;28;20228;-81
2023/02/04 10:09:48;;;;;;;0.50;0.40;;;10.20;99.90;;;;;;5061304;28;20190;-81
2023/02/04 10:12:16;;;;;;;0.50;0.40;;;10.30;99.90;;;;;;5061401;28;20855;-79
2023/02/04 10:14:43;;;;;;;0.98;0.98;;;10.30;99.90;;;;;;5060550;28;20663;-81
2023/02/04 10:17:11;;;;;;;0.60;0.60;;;10.40;99.90;;;;;;5059782;28;20696;-81
2023/02/04 10:19:38;;;;;;;0.50;0.50;;;10.50;99.90;;;;;;5060737;28;20234;-81
2023/02/04 10:22:15;;;;;;;0.50;0.40;;;10.70;99.90;;;;;;5060497;28;20201;-79
2023/02/04 10:24:43;;;;;;;0.50;0.40;;;10.90;99.90;;;;;;5058860;28;20205;-81
2023/02/04 10:27:14;;;;;;;0.50;0.40;;;11.00;99.90;;;;;;5058101;28;20535;-81
2023/02/04 10:29:41;;;;;;;0.50;0.40;;;11.10;99.90;;;;;;5065087;28;20197;-80
2023/02/04 10:32:26;;;;;;;0.50;0.40;;;11.10;99.90;;;;;;5059356;28;20241;-81
2023/02/04 10:34:58;;;;;;;0.73;0.73;;;11.20;99.90;;;;;;5057410;28;20569;-81
2023/02/04 10:37:25;;;;;;;0.50;0.40;;;11.10;99.90;;;;;;5056813;28;20460;-81
2023/02/04 10:39:53;;;;;;;0.50;0.40;;;11.10;99.90;;;;;;5057226;28;20660;-80
2023/02/04 10:42:22;;;;;;;0.50;0.40;;;10.90;99.90;;;;;;5056466;28;20437;-79
2023/02/04 10:44:49;;;;;;;0.50;0.40;;;10.70;99.90;;;;;;5060412;28;20447;-81
2023/02/04 10:47:18;;;;;;;0.53;0.50;;;10.70;99.90;;;;;;5063347;28;20214;-81
2023/02/04 10:49:53;;;;;;;0.50;0.40;;;10.80;99.90;;;;;;5062004;28;20441;-81
2023/02/04 10:52:23;;;;;;;0.50;0.40;;;10.90;99.90;;;;;;5060892;28;20455;-81
2023/02/04 10:54:49;;;;;;;0.80;0.70;;;10.80;99.90;;;;;;5058858;28;20253;-79
2023/02/04 10:57:21;;;;;;;0.50;0.50;;;10.90;99.90;;;;;;5060281;28;20451;-79
2023/02/04 10:59:50;;;;;;;0.65;0.65;;;10.90;99.90;;;;;;5062237;28;20289;-80
2023/02/04 11:02:41;;;;;;;0.50;0.40;;;10.90;99.90;;;;;;5059514;28;20197;-80
2023/02/04 11:05:13;;;;;;;1.33;1.23;;;11.10;99.90;;;;;;5060258;28;20202;-79
2023/02/04 11:07:40;;;;;;;0.50;0.40;;;11.20;99.90;;;;;;5067013;28;20456;-78
2023/02/04 11:10:13;;;;;;;0.55;0.50;;;11.20;99.90;;;;;;5067096;28;20190;-81
2023/02/04 11:12:43;;;;;;;0.50;0.40;;;11.30;99.90;;;;;;5063962;28;20650;-80
2023/02/04 11:15:45;;;;;;;0.50;0.40;;;11.20;99.90;;;;;;5063788;28;20239;-80
2023/02/04 11:18:26;;;;;;;1.57;0.87;;;11.00;99.90;;;;;;5063217;28;20441;-80
2023/02/04 11:20:55;;;;;;;0.50;0.40;;;11.10;99.90;;;;;;5062896;28;20417;-80
2023/02/04 11:23:36;;;;;;;4.03;2.20;;;11.10;99.90;;;;;;5062172;28;20443;-81
2023/02/04 11:26:12;;;;;;;0.60;0.60;;;11.10;99.90;;;;;;5063422;28;20488;-80
2023/02/04 11:28:47;;;;;;;0.60;0.60;;;11.10;99.90;;;;;;5063571;28;20800;-80
2023/02/04 11:31:26;;;;;;;0.50;0.40;;;11.30;99.90;;;;;;5063029;28;20516;-80
2023/02/04 11:34:09;;;;;;;0.50;0.40;;;11.30;99.90;;;;;;5064758;28;20433;-79
2023/02/04 11:36:55;;;;;;;1.63;1.23;;;11.30;99.90;;;;;;5062749;28;20471;-79
2023/02/04 11:39:25;;;;;;;0.50;0.40;;;11.20;99.90;;;;;;5063203;28;20435;-81
2023/02/04 11:41:51;;;;;;;0.50;0.40;;;11.20;99.90;;;;;;5065332;28;20496;-81
2023/02/04 11:44:21;;;;;;;0.50;0.40;;;11.20;99.90;;;;;;5064436;28;20473;-78
2023/02/04 11:46:53;;;;;;;2.00;1.80;;;11.20;99.90;;;;;;5063142;28;20917;-79
2023/02/04 11:49:21;;;;;;;0.50;0.40;;;11.30;99.90;;;;;;5062781;28;20522;-81
2023/02/04 11:51:48;;;;;;;1.67;0.97;;;11.40;99.90;;;;;;5063382;28;20440;-80
2023/02/04 11:54:18;;;;;;;0.50;0.40;;;11.40;99.90;;;;;;5063858;28;20492;-79
2023/02/04 11:56:45;;;;;;;3.90;1.97;;;11.40;99.90;;;;;;5063269;28;20266;-80
2023/02/04 11:59:16;;;;;;;0.87;0.87;;;11.30;99.90;;;;;;5064218;28;20946;-81
2023/02/04 12:01:44;;;;;;;0.50;0.40;;;11.30;99.90;;;;;;5063041;28;20520;-80
2023/02/04 12:04:24;;;;;;;0.95;0.95;;;11.20;99.90;;;;;;5062292;28;20477;-80
2023/02/04 12:06:58;;;;;;;0.50;0.40;;;11.40;99.90;;;;;;5063100;28;20250;-81
2023/02/04 12:09:28;;;;;;;0.50;0.40;;;11.50;99.90;;;;;;5062086;28;20467;-81
2023/02/04 12:11:57;;;;;;;1.73;1.63;;;11.60;99.90;;;;;;5062406;28;20459;-81
2023/02/04 12:14:31;;;;;;;0.97;0.97;;;11.80;99.90;;;;;;5060987;28;20523;-79
2023/02/04 12:16:59;;;;;;;1.23;1.07;;;11.60;99.90;;;;;;5061745;28;20484;-80
2023/02/04 12:19:26;;;;;;;1.77;1.13;;;11.70;99.90;;;;;;5060191;28;21062;-81
2023/02/04 12:21:53;;;;;;;4.83;4.53;;;11.70;99.90;;;;;;5060945;28;20447;-78
2023/02/04 12:24:20;;;;;;;0.50;0.47;;;11.90;99.90;;;;;;5061416;28;20501;-79
2023/02/04 12:26:50;;;;;;;4.30;3.90;;;12.00;99.90;;;;;;5059113;28;20473;-79
2023/02/04 12:29:17;;;;;;;0.50;0.40;;;12.00;99.90;;;;;;5062432;28;20433;-80
2023/02/04 12:31:44;;;;;;;0.50;0.40;;;11.70;99.90;;;;;;5060845;28;20476;-80
2023/02/04 12:34:12;;;;;;;0.50;0.40;;;11.80;99.90;;;;;;5059925;28;20456;-81
2023/02/04 12:36:39;;;;;;;5.30;0.97;;;11.90;99.90;;;;;;5060754;28;20489;-81
2023/02/04 12:39:05;;;;;;;7.57;2.73;;;12.00;99.90;;;;;;5061441;28;20520;-80
2023/02/04 12:41:32;;;;;;;7.83;6.50;;;12.10;99.90;;;;;;5059087;28;20528;-80
2023/02/04 12:44:00;;;;;;;0.50;0.40;;;12.10;99.90;;;;;;5059671;28;20509;-80
2023/02/04 12:46:27;;;;;;;0.50;0.40;;;12.20;99.90;;;;;;5059487;28;20453;-78
2023/02/04 12:48:54;;;;;;;0.50;0.40;;;12.30;99.90;;;;;;5062634;28;20425;-80
2023/02/04 12:51:22;;;;;;;0.50;0.40;;;12.20;99.90;;;;;;5060926;28;20441;-81
2023/02/04 12:53:49;;;;;;;0.90;0.90;;;12.30;99.90;;;;;;5062661;28;20495;-80
2023/02/04 12:56:19;;;;;;;3.57;3.40;;;12.40;99.90;;;;;;5061078;28;20471;-81
2023/02/04 12:58:46;;;;;;;0.50;0.40;;;12.40;99.90;;;;;;5062287;28;20433;-80
2023/02/04 13:01:13;;;;;;;0.77;0.77;;;12.40;99.90;;;;;;5060531;28;20471;-78